createdAt,value
2022-09-26T00:01:36.239Z,4.60
2022-09-26T00:04:09.830Z,4.73
2022-09-26T00:06:38.330Z,3.47
2022-09-26T00:09:06.582Z,4.00
2022-09-26T00:11:35.820Z,3.80
2022-09-26T00:14:06.785Z,4.30
2022-09-26T00:16:35.280Z,4.13
2022-09-26T00:19:05.271Z,4.77
2022-09-26T00:21:33.431Z,3.70
2022-09-26T00:24:02.656Z,4.10
2022-09-26T00:26:32.186Z,4.07
2022-09-26T00:29:04.435Z,3.40
2022-09-26T00:31:34.374Z,3.43
2022-09-26T00:34:02.555Z,3.83
2022-09-26T00:36:38.048Z,3.53
2022-09-26T00:39:07.730Z,3.77
2022-09-26T00:41:36.824Z,3.43
2022-09-26T00:44:24.987Z,3.30
2022-09-26T00:46:53.512Z,3.63
2022-09-26T00:49:26.810Z,3.23
2022-09-26T00:51:59.882Z,3.90
2022-09-26T00:54:30.909Z,2.57
2022-09-26T00:57:04.579Z,3.20
2022-09-26T00:59:36.524Z,3.47
2022-09-26T01:02:05.560Z,2.83
2022-09-26T01:04:36.599Z,3.77
2022-09-26T01:07:11.624Z,3.20
2022-09-26T01:09:40.317Z,3.70
2022-09-26T01:12:10.280Z,2.80
2022-09-26T01:14:40.331Z,3.33
2022-09-26T01:17:09.329Z,3.27
2022-09-26T01:19:50.570Z,2.83
2022-09-26T01:22:43.688Z,3.20
2022-09-26T01:25:22.917Z,3.23
2022-09-26T01:28:05.558Z,2.77
2022-09-26T01:30:41.070Z,3.20
2022-09-26T01:33:36.571Z,2.90
2022-09-26T01:36:40.080Z,3.03
2022-09-26T01:39:22.839Z,3.13
2022-09-26T01:41:59.611Z,3.17
2022-09-26T01:44:32.548Z,3.20
2022-09-26T01:47:09.276Z,2.87
2022-09-26T01:49:46.493Z,3.47
2022-09-26T01:52:20.612Z,3.20
2022-09-26T01:54:54.369Z,3.17
2022-09-26T01:57:28.323Z,4.07
2022-09-26T02:00:00.253Z,3.10
2022-09-26T02:02:33.561Z,3.70
2022-09-26T02:05:05.983Z,3.60
2022-09-26T02:07:42.159Z,3.67
2022-09-26T02:10:14.744Z,3.77
2022-09-26T02:12:46.484Z,3.40
2022-09-26T02:15:19.638Z,4.07
2022-09-26T02:17:53.162Z,3.63
2022-09-26T02:20:26.938Z,3.63
2022-09-26T02:22:55.050Z,3.70
2022-09-26T02:25:23.129Z,3.63
2022-09-26T02:27:51.221Z,3.37
2022-09-26T02:30:19.526Z,3.30
2022-09-26T02:32:49.509Z,3.40
2022-09-26T02:35:36.200Z,3.60
2022-09-26T02:38:05.686Z,3.33
2022-09-26T02:40:42.356Z,3.07
2022-09-26T02:43:50.274Z,2.90
2022-09-26T02:46:44.059Z,2.67
2022-09-26T02:49:36.795Z,3.47
2022-09-26T02:52:21.825Z,3.23
2022-09-26T02:55:01.072Z,2.90
2022-09-26T02:57:40.082Z,3.07
2022-09-26T03:08:20.094Z,2.90
2022-09-26T03:10:50.317Z,2.70
2022-09-26T03:13:20.353Z,2.90
2022-09-26T03:15:53.032Z,2.30
2022-09-26T03:18:24.728Z,2.53
2022-09-26T03:20:54.860Z,2.67
2022-09-26T03:23:25.505Z,2.43
2022-09-26T03:26:04.364Z,2.33
2022-09-26T03:28:37.462Z,2.87
2022-09-26T03:31:08.727Z,2.30
2022-09-26T03:33:36.866Z,2.60
2022-09-26T03:36:09.536Z,2.07
2022-09-26T03:38:38.997Z,2.43
2022-09-26T03:41:07.804Z,2.30
2022-09-26T03:43:36.519Z,2.23
2022-09-26T03:46:06.408Z,2.20
2022-09-26T03:48:35.562Z,2.00
2022-09-26T03:51:04.575Z,2.10
2022-09-26T03:53:34.036Z,2.50
2022-09-26T03:56:08.523Z,2.33
2022-09-26T03:58:37.039Z,2.37
2022-09-26T04:01:07.870Z,2.27
2022-09-26T04:03:37.753Z,2.87
2022-09-26T04:06:08.501Z,2.10
2022-09-26T04:08:38.440Z,2.10
2022-09-26T04:11:09.636Z,2.50
2022-09-26T04:13:51.335Z,2.10
2022-09-26T04:16:21.273Z,1.93
2022-09-26T04:18:49.644Z,2.20
2022-09-26T04:21:18.377Z,2.10
2022-09-26T04:23:46.436Z,2.53
2022-09-26T04:26:23.258Z,2.03
2022-09-26T04:28:54.943Z,2.13
2022-09-26T04:31:24.090Z,2.07
2022-09-26T04:33:54.524Z,2.20
2022-09-26T04:36:23.030Z,2.03
2022-09-26T04:38:51.100Z,2.00
2022-09-26T04:41:22.337Z,2.40
2022-09-26T04:43:50.683Z,2.33
2022-09-26T04:46:24.528Z,2.10
2022-09-26T04:48:57.435Z,2.40
2022-09-26T04:51:27.627Z,2.13
2022-09-26T04:53:55.773Z,2.00
2022-09-26T04:56:26.703Z,2.40
2022-09-26T04:58:56.947Z,2.40
2022-09-26T05:01:25.748Z,2.00
2022-09-26T05:03:55.572Z,2.37
2022-09-26T05:06:23.663Z,2.00
2022-09-26T05:08:51.698Z,2.30
2022-09-26T05:11:21.661Z,1.97
2022-09-26T05:13:53.876Z,2.47
2022-09-26T05:16:22.790Z,1.97
2022-09-26T05:18:52.044Z,2.17
2022-09-26T05:21:20.641Z,2.50
2022-09-26T05:24:05.932Z,2.30
2022-09-26T05:26:41.003Z,2.27
2022-09-26T05:29:12.112Z,2.57
2022-09-26T05:31:40.796Z,2.27
2022-09-26T05:34:14.177Z,2.23
2022-09-26T05:36:45.051Z,2.07
2022-09-26T05:39:26.951Z,2.73
2022-09-26T05:41:55.568Z,2.97
2022-09-26T05:44:25.031Z,2.50
2022-09-26T05:46:53.460Z,2.30
2022-09-26T05:49:21.571Z,2.27
2022-09-26T05:51:49.627Z,2.00
2022-09-26T05:54:17.684Z,3.13
2022-09-26T05:56:45.737Z,2.17
2022-09-26T05:59:13.965Z,2.20
2022-09-26T06:01:43.582Z,2.77
2022-09-26T06:04:11.834Z,2.57
2022-09-26T06:06:39.887Z,2.70
2022-09-26T06:09:08.033Z,2.83
2022-09-26T06:11:36.215Z,2.80
2022-09-26T06:14:04.370Z,2.93
2022-09-26T06:16:33.002Z,2.50
2022-09-26T06:19:02.693Z,2.87
2022-09-26T06:21:30.921Z,2.90
2022-09-26T06:23:59.003Z,2.77
2022-09-26T06:26:28.949Z,2.50
2022-09-26T06:28:59.854Z,2.40
2022-09-26T06:31:28.600Z,3.13
2022-09-26T06:33:58.451Z,3.13
2022-09-26T06:36:27.868Z,2.97
2022-09-26T06:38:56.292Z,2.80
2022-09-26T06:41:26.512Z,2.70
2022-09-26T06:43:54.676Z,3.03
2022-09-26T06:46:22.893Z,4.03
2022-09-26T06:48:50.921Z,3.43
2022-09-26T06:51:20.125Z,2.97
2022-09-26T06:53:49.686Z,3.30
2022-09-26T06:56:18.220Z,3.40
2022-09-26T06:58:49.641Z,3.03
2022-09-26T07:01:18.479Z,3.40
2022-09-26T07:03:46.621Z,2.83
2022-09-26T07:06:14.952Z,3.50
2022-09-26T07:09:01.556Z,2.93
2022-09-26T07:11:50.477Z,2.70
2022-09-26T07:14:20.767Z,2.60
2022-09-26T07:16:49.982Z,2.60
2022-09-26T07:19:18.624Z,2.40
2022-09-26T07:21:48.473Z,2.40
2022-09-26T07:24:16.502Z,2.97
2022-09-26T07:26:45.902Z,2.57
2022-09-26T07:29:14.177Z,2.67
2022-09-26T07:31:42.495Z,2.37
2022-09-26T07:34:14.651Z,2.57
2022-09-26T07:36:47.539Z,1.87
2022-09-26T07:39:15.986Z,2.70
2022-09-26T07:41:46.749Z,2.80
2022-09-26T07:45:09.704Z,2.37
2022-09-26T07:47:20.586Z,2.53
2022-09-26T07:50:06.236Z,1.70
2022-09-26T07:52:34.420Z,2.23
2022-09-26T07:55:02.514Z,2.10
2022-09-26T07:57:35.614Z,2.23
2022-09-26T08:00:05.322Z,2.57
2022-09-26T08:02:35.999Z,2.23
2022-09-26T08:05:05.110Z,1.87
2022-09-26T08:07:35.557Z,2.47
2022-09-26T08:10:05.560Z,1.63
2022-09-26T08:12:38.288Z,1.90
2022-09-26T08:15:07.470Z,1.80
2022-09-26T08:17:36.120Z,2.20
2022-09-26T08:20:05.017Z,2.60
2022-09-26T08:22:33.572Z,1.80
2022-09-26T08:25:01.875Z,2.10
2022-09-26T08:27:33.881Z,2.10
2022-09-26T08:30:04.474Z,1.70
2022-09-26T08:32:33.785Z,1.93
2022-09-26T08:35:01.904Z,2.17
2022-09-26T08:37:31.100Z,1.60
2022-09-26T08:40:00.810Z,2.13
2022-09-26T08:42:42.912Z,2.27
2022-09-26T08:45:55.443Z,1.60
2022-09-26T08:48:39.513Z,1.53
2022-09-26T08:51:17.283Z,2.03
2022-09-26T08:53:51.937Z,1.90
2022-09-26T08:56:23.854Z,1.50
2022-09-26T08:58:55.812Z,1.30
2022-09-26T09:01:29.859Z,1.97
2022-09-26T09:04:06.324Z,1.67
2022-09-26T09:06:35.589Z,1.90
2022-09-26T09:09:03.714Z,2.07
2022-09-26T09:11:51.331Z,2.07
2022-09-26T09:14:45.470Z,1.90
2022-09-26T09:17:22.148Z,1.63
2022-09-26T09:19:59.967Z,1.77
2022-09-26T09:22:46.417Z,2.33
2022-09-26T09:25:19.500Z,1.87
2022-09-26T09:28:07.956Z,2.07
2022-09-26T09:30:43.628Z,2.00
2022-09-26T09:33:18.122Z,2.17
2022-09-26T09:35:50.677Z,2.40
2022-09-26T09:38:21.568Z,2.40
2022-09-26T09:40:58.256Z,2.60
2022-09-26T09:43:31.894Z,2.30
2022-09-26T09:46:05.192Z,2.10
2022-09-26T09:48:34.888Z,2.37
2022-09-26T09:51:19.572Z,4.07
2022-09-26T09:54:14.109Z,4.07
2022-09-26T09:56:52.018Z,3.07
2022-09-26T09:59:34.535Z,3.20
2022-09-26T10:02:19.907Z,3.40
2022-09-26T10:04:57.776Z,3.00
2022-09-26T10:07:25.876Z,3.10
2022-09-26T10:09:54.179Z,2.70
2022-09-26T10:12:29.547Z,2.87
2022-09-26T10:15:01.035Z,3.07
2022-09-26T10:17:29.848Z,3.50
2022-09-26T10:19:59.471Z,3.30
2022-09-26T10:22:32.822Z,2.97
2022-09-26T10:25:03.899Z,3.33
2022-09-26T10:27:38.262Z,3.03
2022-09-26T10:30:26.909Z,3.17
2022-09-26T10:32:57.347Z,3.37
2022-09-26T10:35:29.737Z,3.13
2022-09-26T10:38:02.904Z,3.10
2022-09-26T10:40:48.529Z,3.00
2022-09-26T10:43:24.952Z,3.40
2022-09-26T10:45:56.085Z,3.70
2022-09-26T10:48:35.434Z,2.93
2022-09-26T10:51:06.705Z,3.40
2022-09-26T10:53:39.066Z,4.07
2022-09-26T10:56:10.681Z,3.17
2022-09-26T10:58:44.889Z,3.57
2022-09-26T11:01:21.450Z,3.83
2022-09-26T11:03:50.709Z,2.90
2022-09-26T11:06:30.531Z,2.90
2022-09-26T11:09:03.077Z,3.40
2022-09-26T11:11:35.180Z,3.77
2022-09-26T11:14:05.854Z,3.13
2022-09-26T11:16:52.106Z,3.73
2022-09-26T11:19:34.219Z,3.23
2022-09-26T11:22:12.638Z,2.80
2022-09-26T11:24:47.563Z,3.17
2022-09-26T11:27:30.492Z,3.00
2022-09-26T11:30:03.084Z,2.93
2022-09-26T11:32:33.510Z,3.33
2022-09-26T11:35:03.703Z,3.03
2022-09-26T11:38:09.174Z,3.30
2022-09-26T11:40:55.041Z,3.23
2022-09-26T11:43:38.323Z,4.20
2022-09-26T11:46:21.237Z,3.43
2022-09-26T11:49:10.658Z,3.17
2022-09-26T11:51:56.267Z,3.40
2022-09-26T11:58:44.365Z,3.50
2022-09-26T12:01:21.905Z,3.17
2022-09-26T12:04:16.205Z,3.40
2022-09-26T12:06:56.051Z,3.10
2022-09-26T12:09:38.638Z,3.23
2022-09-26T12:12:17.039Z,3.43
2022-09-26T12:15:02.939Z,3.03
2022-09-26T12:17:48.797Z,3.43
2022-09-26T12:20:29.995Z,3.23
2022-09-26T12:23:07.247Z,2.97
2022-09-26T12:25:44.496Z,3.17
2022-09-26T12:28:38.687Z,2.97
2022-09-26T12:31:19.890Z,3.30
2022-09-26T12:34:07.805Z,3.20
2022-09-26T12:36:48.483Z,3.00
2022-09-26T12:39:48.727Z,3.47
2022-09-26T12:42:30.527Z,2.67
2022-09-26T12:45:22.405Z,2.73
2022-09-26T12:48:08.064Z,2.83
2022-09-26T12:50:49.881Z,3.10
2022-09-26T12:53:40.151Z,2.80
2022-09-26T12:56:11.125Z,2.73
2022-09-26T13:10:58.665Z,2.60
2022-09-26T13:13:50.980Z,3.03
2022-09-26T13:16:28.223Z,2.70
2022-09-26T13:19:01.398Z,2.47
2022-09-26T13:21:42.067Z,2.83
2022-09-26T13:24:18.550Z,2.37
2022-09-26T13:26:53.119Z,2.30
2022-09-26T13:29:27.016Z,2.13
2022-09-26T13:32:05.080Z,2.57
2022-09-26T13:34:38.768Z,2.60
2022-09-26T13:37:12.751Z,2.40
2022-09-26T13:39:49.163Z,2.70
2022-09-26T13:42:24.309Z,2.33
2022-09-26T13:44:59.989Z,2.33
2022-09-26T13:47:39.874Z,1.90
2022-09-26T13:50:23.402Z,2.13
2022-09-26T13:53:06.825Z,2.23
2022-09-26T13:55:36.459Z,2.10
2022-09-26T13:58:19.267Z,2.40
2022-09-26T14:00:53.317Z,2.30
2022-09-26T14:11:24.238Z,2.10
2022-09-26T14:14:24.202Z,2.10
2022-09-26T14:16:54.512Z,2.23
2022-09-26T14:19:35.684Z,2.03
2022-09-26T14:22:06.565Z,2.47
2022-09-26T14:24:37.460Z,2.03
2022-09-26T14:27:29.839Z,2.20
2022-09-26T14:30:23.570Z,2.00
2022-09-26T14:32:54.282Z,2.00
2022-09-26T14:35:27.950Z,2.10
2022-09-26T14:38:01.319Z,1.80
2022-09-26T14:40:32.548Z,1.67
2022-09-26T14:43:14.140Z,2.37
2022-09-26T14:45:52.554Z,1.50
2022-09-26T14:48:32.212Z,2.10
2022-09-26T14:51:03.752Z,1.57
2022-09-26T14:53:38.464Z,1.83
2022-09-26T14:56:10.352Z,2.00
2022-09-26T14:58:51.115Z,1.80
2022-09-26T15:01:25.768Z,2.00
2022-09-26T15:04:04.050Z,1.43
2022-09-26T15:06:38.123Z,1.37
2022-09-26T15:09:11.230Z,1.60
2022-09-26T15:11:44.643Z,1.57
2022-09-26T15:14:27.161Z,1.87
2022-09-26T15:16:58.946Z,1.80
2022-09-26T15:19:29.822Z,1.63
2022-09-26T15:22:02.071Z,1.60
2022-09-26T15:24:33.444Z,1.50
2022-09-26T15:27:08.789Z,1.60
2022-09-26T15:29:37.446Z,1.70
2022-09-26T15:32:07.060Z,2.77
2022-09-26T15:34:37.356Z,1.87
2022-09-26T15:37:18.233Z,2.20
2022-09-26T15:39:46.337Z,1.67
2022-09-26T15:42:47.599Z,1.50
2022-09-26T15:45:26.131Z,1.40
2022-09-26T15:47:57.339Z,1.17
2022-09-26T15:50:32.823Z,1.80
2022-09-26T15:53:06.549Z,1.53
2022-09-26T15:55:38.713Z,1.30
2022-09-26T15:58:08.915Z,1.60
2022-09-26T16:00:41.843Z,1.27
2022-09-26T16:03:38.357Z,1.13
2022-09-26T16:06:14.197Z,1.27
2022-09-26T16:08:43.703Z,1.67
2022-09-26T16:11:11.880Z,1.53
2022-09-26T16:13:46.461Z,1.50
2022-09-26T16:16:18.906Z,2.97
2022-09-26T16:18:55.141Z,1.20
2022-09-26T16:21:25.776Z,1.20
2022-09-26T16:23:56.296Z,1.67
2022-09-26T16:26:43.064Z,1.57
2022-09-26T16:29:11.180Z,1.30
2022-09-26T16:31:47.005Z,1.37
2022-09-26T16:34:26.101Z,1.53
2022-09-26T16:36:55.047Z,1.30
2022-09-26T16:39:26.610Z,1.40
2022-09-26T16:42:02.754Z,1.30
2022-09-26T16:44:35.798Z,1.30
2022-09-26T16:47:06.834Z,1.40
2022-09-26T16:49:47.152Z,1.33
2022-09-26T16:52:29.616Z,1.33
2022-09-26T16:54:59.177Z,1.90
2022-09-26T16:57:30.487Z,2.60
2022-09-26T17:00:15.470Z,1.83
2022-09-26T17:02:43.986Z,1.97
2022-09-26T17:05:19.439Z,2.40
2022-09-26T17:15:31.081Z,2.57
2022-09-26T17:18:01.032Z,2.70
2022-09-26T17:20:30.680Z,2.83
2022-09-26T17:23:07.839Z,2.67
2022-09-26T17:25:48.209Z,3.80
2022-09-26T17:28:20.580Z,3.50
2022-09-26T17:30:49.047Z,3.70
2022-09-26T17:33:17.172Z,4.00
2022-09-26T17:35:46.685Z,3.63
2022-09-26T17:38:17.758Z,4.30
2022-09-26T17:40:47.984Z,4.13
2022-09-26T17:43:16.175Z,4.10
2022-09-26T17:45:47.930Z,4.50
2022-09-26T17:48:25.437Z,3.87
2022-09-26T17:50:55.637Z,4.27
2022-09-26T17:53:26.772Z,4.33
2022-09-26T17:55:54.874Z,4.20
2022-09-26T17:58:22.934Z,4.67
2022-09-26T18:00:53.206Z,4.60
2022-09-26T18:03:24.961Z,4.37
2022-09-26T18:05:54.916Z,4.00
2022-09-26T18:08:26.727Z,4.73
2022-09-26T18:10:57.454Z,4.23
2022-09-26T18:13:31.646Z,4.17
2022-09-26T18:16:00.202Z,4.30
2022-09-26T18:18:29.879Z,4.47
2022-09-26T18:21:03.950Z,4.20
2022-09-26T18:23:41.000Z,4.57
2022-09-26T18:26:14.227Z,4.83
2022-09-26T18:28:42.274Z,4.73
2022-09-26T18:31:12.367Z,4.70
2022-09-26T18:33:41.360Z,5.13
2022-09-26T18:36:13.226Z,5.50
2022-09-26T18:38:41.343Z,4.53
2022-09-26T18:41:12.314Z,5.70
2022-09-26T18:43:42.479Z,6.03
2022-09-26T18:46:13.597Z,5.73
2022-09-26T18:48:41.788Z,4.90
2022-09-26T18:51:13.114Z,6.23
2022-09-26T18:53:41.473Z,6.40
2022-09-26T19:10:47.671Z,7.10
2022-09-26T19:13:15.770Z,7.83
2022-09-26T19:15:43.870Z,8.70
2022-09-26T19:18:11.962Z,8.30
2022-09-26T19:20:40.112Z,8.30
2022-09-26T19:23:09.665Z,8.33
2022-09-26T19:25:39.959Z,9.37
2022-09-26T19:28:13.266Z,8.87
2022-09-26T19:30:41.434Z,8.50
2022-09-26T19:33:13.596Z,9.10
2022-09-26T19:35:43.343Z,7.83
2022-09-26T19:38:19.866Z,9.43
2022-09-26T19:40:49.226Z,8.70
2022-09-26T19:43:19.241Z,8.10
2022-09-26T19:45:52.075Z,9.03
2022-09-26T19:48:22.968Z,7.80
2022-09-26T19:50:52.660Z,8.03
2022-09-26T19:53:23.275Z,6.80
2022-09-26T19:55:52.253Z,6.97
2022-09-26T19:58:23.671Z,7.47
2022-09-26T20:00:55.385Z,6.87
2022-09-26T20:03:26.824Z,6.83
2022-09-26T20:05:57.793Z,6.27
2022-09-26T20:08:28.011Z,5.80
2022-09-26T20:10:58.925Z,6.77
2022-09-26T20:13:48.405Z,5.53
2022-09-26T20:16:16.644Z,5.27
2022-09-26T20:18:44.762Z,4.43
2022-09-26T20:21:14.690Z,4.77
2022-09-26T20:23:45.006Z,4.53
2022-09-26T20:26:14.853Z,4.73
2022-09-26T20:28:44.300Z,4.40
2022-09-26T20:31:21.492Z,3.33
2022-09-26T20:33:51.186Z,2.63
2022-09-26T20:36:24.547Z,2.70
2022-09-26T20:38:55.606Z,2.30
2022-09-26T20:41:27.684Z,2.43
2022-09-26T20:44:01.926Z,2.00
2022-09-26T20:46:37.447Z,1.97
2022-09-26T20:49:09.973Z,2.60
2022-09-26T20:51:40.833Z,2.70
2022-09-26T20:54:20.406Z,2.73
2022-09-26T20:56:48.964Z,2.57
2022-09-26T20:59:18.493Z,2.70
2022-09-26T21:01:46.661Z,1.73
2022-09-26T21:04:17.005Z,1.73
2022-09-26T21:06:46.811Z,1.73
2022-09-26T21:09:16.486Z,1.27
2022-09-26T21:11:44.745Z,1.30
2022-09-26T21:14:12.888Z,1.50
2022-09-26T21:16:45.502Z,1.83
2022-09-26T21:19:20.496Z,1.20
2022-09-26T21:21:48.827Z,1.50
2022-09-26T21:24:21.638Z,1.40
2022-09-26T21:26:52.304Z,1.77
2022-09-26T21:29:20.358Z,1.67
2022-09-26T21:31:52.122Z,1.33
2022-09-26T21:34:23.307Z,1.33
2022-09-26T21:36:54.459Z,1.10
2022-09-26T21:39:24.098Z,1.60
2022-09-26T21:41:55.457Z,1.37
2022-09-26T21:44:26.271Z,1.47
2022-09-26T21:46:55.659Z,1.43
2022-09-26T21:49:23.707Z,1.30
2022-09-26T21:51:55.699Z,1.07
2022-09-26T21:54:27.083Z,1.20
2022-09-26T21:56:58.680Z,1.23
2022-09-26T21:59:26.977Z,1.00
2022-09-26T22:01:56.544Z,0.90
2022-09-26T22:04:24.790Z,1.50
2022-09-26T22:06:52.819Z,1.20
2022-09-26T22:09:20.824Z,1.37
2022-09-26T22:11:48.866Z,1.03
2022-09-26T22:14:17.428Z,1.10
2022-09-26T22:16:45.556Z,1.37
2022-09-26T22:19:15.520Z,1.53
2022-09-26T22:21:44.194Z,1.13
2022-09-26T22:24:12.209Z,1.43
2022-09-26T22:26:40.457Z,1.17
2022-09-26T22:29:08.485Z,2.27
2022-09-26T22:31:36.563Z,1.00
2022-09-26T22:34:04.718Z,1.10
2022-09-26T22:36:34.145Z,1.10
2022-09-26T22:39:02.410Z,1.40
2022-09-26T22:41:30.462Z,0.90
2022-09-26T22:43:59.496Z,0.93
2022-09-26T22:46:27.823Z,1.23
2022-09-26T22:48:56.549Z,1.30
2022-09-26T22:51:24.682Z,1.30
2022-09-26T22:53:54.186Z,1.47
2022-09-26T22:56:22.829Z,0.97
2022-09-26T22:58:52.760Z,1.43
2022-09-26T23:01:23.247Z,1.50
2022-09-26T23:03:52.871Z,1.67
2022-09-26T23:06:21.773Z,1.57
2022-09-26T23:08:50.216Z,1.33
2022-09-26T23:11:20.038Z,1.40
2022-09-26T23:13:48.491Z,1.57
2022-09-26T23:16:18.312Z,1.63
2022-09-26T23:18:46.735Z,1.43
2022-09-26T23:21:16.495Z,1.53
2022-09-26T23:23:45.720Z,1.60
2022-09-26T23:26:17.344Z,1.93
2022-09-26T23:28:46.856Z,1.63
2022-09-26T23:31:15.000Z,1.70
2022-09-26T23:33:46.161Z,2.13
2022-09-26T23:36:14.281Z,1.60
2022-09-26T23:38:42.695Z,2.40
2022-09-26T23:41:12.425Z,1.53
2022-09-26T23:43:40.813Z,1.60
2022-09-26T23:46:13.247Z,1.40
2022-09-26T23:48:41.425Z,1.60
2022-09-26T23:51:09.696Z,1.53
2022-09-26T23:53:37.923Z,1.50
2022-09-26T23:56:11.609Z,1.23
2022-09-26T23:58:40.127Z,1.20
